Valparaiso, IN

4:58 PM CDT on July 21, 2017 (GMT -0500)
| | Change Station
Active Advisory: Severe Thunderstorm Watch

Elev -9999 ft 0.00 °N, 0.00 °E | Updated 4 minutes ago

Clear
Clear
°F
Feels Like °F
N
Wind Variable Wind from North
Gusts mph

Today
High -- | Low -- °F
--% Chance of Precip.
Yesterday
High -- | Low -- °F
Precip. -- in
Pressure 29.94 in
Visibility 10.0 miles
Clouds Few 2600 ft
Dew Point Not available.
Humidity Not available.
Rainfall --
Snow Depth Not available.
5:33 AM 8:15 PM
Waning Crescent, 3% visible
METAR KVPZ 212156Z AUTO 17007KT 10SM FEW026 29/23 A2995 RMK AO2 SLP137 T02940233 TSNO $
Pressure 29.94 in
Visibility 10.0 miles
Clouds Few 2600 ft
Dew Point Not available.
Humidity Not available.
Rainfall --
Snow Depth Not available.
5:33 AM 8:15 PM
Waning Crescent, 3% visible
METAR KVPZ 212156Z AUTO 17007KT 10SM FEW026 29/23 A2995 RMK AO2 SLP137 T02940233 TSNO $

Get Your Daily Forecast Email!

Thanks for signing up!

Be on the lookout for a verification email in your inbox.

You'll start receiving severe weather alerts in your inbox..

×

10-Day Weather Forecast

Almanac

Astronomy

Jul. 21, 2017 Rise Set
Actual Time
Civil Twilight
Nautical Twilight
Astronomical Twilight
Moon
Length of Visible Light
Length of Day
Tomorrow will be .
, % of the Moon is Illuminated

Today's Extremes

State Highs State Lows

Community

WunderPhotos

Category 6

Welcome to Category 6. This is the collective home for Weather Underground's featured writeups by Dr. Jeff Masters (right), Bob Henson (left), Chris Burt, and other regular contributors.

Nearby

Air Quality

  Air Quality AQ Index Pollutant
Not available.

Snow Depth

Station Depth Elevation

Earthquake Activity

City Distance Mag. Time & Date
Minimum magnitude displayed is 2.5.

Coastal Water Temperatures

Place Temperature

Stations

Nearby Weather Stations

Station Location Temp. Windchill Dew Point Humidity Wind Precip. Elev Updated Type
                   

Watches & Warnings

Severe Thunderstorm Watch
Issued: 4:53 PM CDT Jul. 21, 2017 – National Weather Service


The National Weather Service has issued Severe Thunderstorm Watch
429 in effect until midnight CDT /1 am EDT/ tonight for the
following areas

In Illinois this watch includes 18 counties

In central Illinois

Livingston

In east central Illinois

Ford Iroquois

In north central Illinois

Boone De Kalb La Salle
Lee Ogle Winnebago

In northeast Illinois

Cook dupage Grundy
Kane Kankakee Kendall
Lake IL McHenry will

In Indiana this watch includes 5 counties

In Northwest Indiana

Benton Jasper Lake in
Newton Porter

This includes the cities of Aurora, Chicago, DeKalb, Dixon,
Douglas Park, Fowler, Gary, Humboldt Park, Hyde Park, Joliet,
Kankakee, Lakeview, Lincoln Park, Logan Square, Morocco, Morris,
Oregon, Oswego, Ottawa, Piper City, Pontiac, Rensselaer,
Valparaiso, Watseka, and Wheaton.